sensor_id;sensor_type;location;lat;lon;timestamp;temperature;humidity
56729;DHT22;42612;52.232;7.560;2023-07-31T00:01:46;20.70;58.50
56729;DHT22;42612;52.232;7.560;2023-07-31T00:04:12;20.60;57.30
56729;DHT22;42612;52.232;7.560;2023-07-31T00:06:37;20.60;59.30
56729;DHT22;42612;52.232;7.560;2023-07-31T00:09:03;20.60;59.00
56729;DHT22;42612;52.232;7.560;2023-07-31T00:11:28;20.60;57.90
56729;DHT22;42612;52.232;7.560;2023-07-31T00:13:54;20.60;58.10
56729;DHT22;42612;52.232;7.560;2023-07-31T00:16:20;20.60;57.80
56729;DHT22;42612;52.232;7.560;2023-07-31T00:18:45;20.60;57.40
56729;DHT22;42612;52.232;7.560;2023-07-31T00:21:11;20.50;57.40
56729;DHT22;42612;52.232;7.560;2023-07-31T00:23:36;20.50;57.40
56729;DHT22;42612;52.232;7.560;2023-07-31T00:26:02;20.50;57.50
56729;DHT22;42612;52.232;7.560;2023-07-31T00:28:28;20.40;57.20
56729;DHT22;42612;52.232;7.560;2023-07-31T00:30:54;20.40;58.00
56729;DHT22;42612;52.232;7.560;2023-07-31T00:33:19;20.50;57.80
56729;DHT22;42612;52.232;7.560;2023-07-31T00:35:45;20.50;58.30
56729;DHT22;42612;52.232;7.560;2023-07-31T00:38:10;20.50;58.20
56729;DHT22;42612;52.232;7.560;2023-07-31T00:40:36;20.50;59.00
56729;DHT22;42612;52.232;7.560;2023-07-31T00:43:03;20.40;58.50
56729;DHT22;42612;52.232;7.560;2023-07-31T00:45:28;20.40;59.20
56729;DHT22;42612;52.232;7.560;2023-07-31T00:47:54;20.40;57.80
56729;DHT22;42612;52.232;7.560;2023-07-31T00:50:21;20.40;58.40
56729;DHT22;42612;52.232;7.560;2023-07-31T00:52:47;20.30;58.80
56729;DHT22;42612;52.232;7.560;2023-07-31T00:55:13;20.30;58.80
56729;DHT22;42612;52.232;7.560;2023-07-31T00:57:39;20.30;58.60
56729;DHT22;42612;52.232;7.560;2023-07-31T01:00:05;20.30;58.50
56729;DHT22;42612;52.232;7.560;2023-07-31T01:02:31;20.20;58.80
56729;DHT22;42612;52.232;7.560;2023-07-31T01:04:57;20.20;58.20
56729;DHT22;42612;52.232;7.560;2023-07-31T01:07:27;20.20;58.40
56729;DHT22;42612;52.232;7.560;2023-07-31T01:10:04;20.20;58.70
56729;DHT22;42612;52.232;7.560;2023-07-31T01:12:33;20.20;58.80
56729;DHT22;42612;52.232;7.560;2023-07-31T01:15:03;20.20;59.20
56729;DHT22;42612;52.232;7.560;2023-07-31T01:17:29;20.20;58.80
56729;DHT22;42612;52.232;7.560;2023-07-31T01:19:55;20.20;58.40
56729;DHT22;42612;52.232;7.560;2023-07-31T01:25:16;20.20;58.80
56729;DHT22;42612;52.232;7.560;2023-07-31T01:27:59;20.20;58.40
56729;DHT22;42612;52.232;7.560;2023-07-31T01:30:28;20.20;58.80
56729;DHT22;42612;52.232;7.560;2023-07-31T01:32:59;20.20;58.50
56729;DHT22;42612;52.232;7.560;2023-07-31T01:35:27;20.20;58.40
56729;DHT22;42612;52.232;7.560;2023-07-31T01:37:52;20.20;58.50
56729;DHT22;42612;52.232;7.560;2023-07-31T01:40:19;20.10;59.20
56729;DHT22;42612;52.232;7.560;2023-07-31T01:42:45;20.10;58.80
56729;DHT22;42612;52.232;7.560;2023-07-31T01:45:10;20.20;59.80
56729;DHT22;42612;52.232;7.560;2023-07-31T01:47:36;20.10;58.70
56729;DHT22;42612;52.232;7.560;2023-07-31T01:50:02;20.10;58.50
56729;DHT22;42612;52.232;7.560;2023-07-31T01:52:28;20.10;58.60
56729;DHT22;42612;52.232;7.560;2023-07-31T01:54:55;20.10;60.60
56729;DHT22;42612;52.232;7.560;2023-07-31T01:57:20;20.10;59.20
56729;DHT22;42612;52.232;7.560;2023-07-31T01:59:46;20.10;59.90
56729;DHT22;42612;52.232;7.560;2023-07-31T02:02:12;20.10;59.80
56729;DHT22;42612;52.232;7.560;2023-07-31T02:04:38;20.00;59.50
56729;DHT22;42612;52.232;7.560;2023-07-31T02:07:04;20.10;59.30
56729;DHT22;42612;52.232;7.560;2023-07-31T02:09:30;20.10;59.80
56729;DHT22;42612;52.232;7.560;2023-07-31T02:11:56;20.00;59.70
56729;DHT22;42612;52.232;7.560;2023-07-31T02:14:21;20.10;59.40
56729;DHT22;42612;52.232;7.560;2023-07-31T02:16:47;20.10;59.50
56729;DHT22;42612;52.232;7.560;2023-07-31T02:19:13;20.00;59.60
56729;DHT22;42612;52.232;7.560;2023-07-31T02:21:38;20.00;59.60
56729;DHT22;42612;52.232;7.560;2023-07-31T02:24:04;20.00;60.00
56729;DHT22;42612;52.232;7.560;2023-07-31T02:26:29;20.00;59.30
56729;DHT22;42612;52.232;7.560;2023-07-31T02:28:55;20.00;59.30
56729;DHT22;42612;52.232;7.560;2023-07-31T02:31:21;20.00;60.70
56729;DHT22;42612;52.232;7.560;2023-07-31T02:33:46;20.00;59.80
56729;DHT22;42612;52.232;7.560;2023-07-31T02:36:12;20.00;60.60
56729;DHT22;42612;52.232;7.560;2023-07-31T02:38:37;20.00;60.80
56729;DHT22;42612;52.232;7.560;2023-07-31T02:41:03;20.00;60.50
56729;DHT22;42612;52.232;7.560;2023-07-31T02:43:29;20.00;60.20
56729;DHT22;42612;52.232;7.560;2023-07-31T02:45:54;20.00;60.90
56729;DHT22;42612;52.232;7.560;2023-07-31T02:48:20;20.00;60.60
56729;DHT22;42612;52.232;7.560;2023-07-31T02:50:47;20.00;60.00
56729;DHT22;42612;52.232;7.560;2023-07-31T02:53:13;19.90;59.80
56729;DHT22;42612;52.232;7.560;2023-07-31T02:55:39;20.00;59.80
56729;DHT22;42612;52.232;7.560;2023-07-31T02:58:04;20.00;59.60
56729;DHT22;42612;52.232;7.560;2023-07-31T03:00:30;20.00;59.60
56729;DHT22;42612;52.232;7.560;2023-07-31T03:02:56;20.00;59.70
56729;DHT22;42612;52.232;7.560;2023-07-31T03:05:21;20.00;60.60
56729;DHT22;42612;52.232;7.560;2023-07-31T03:07:47;20.00;60.40
56729;DHT22;42612;52.232;7.560;2023-07-31T03:10:12;20.10;60.00
56729;DHT22;42612;52.232;7.560;2023-07-31T03:12:38;20.10;61.00
56729;DHT22;42612;52.232;7.560;2023-07-31T03:15:04;20.20;60.30
56729;DHT22;42612;52.232;7.560;2023-07-31T03:17:29;20.10;60.30
56729;DHT22;42612;52.232;7.560;2023-07-31T03:19:55;20.10;60.30
56729;DHT22;42612;52.232;7.560;2023-07-31T03:22:21;20.10;59.30
56729;DHT22;42612;52.232;7.560;2023-07-31T03:24:46;20.10;59.40
56729;DHT22;42612;52.232;7.560;2023-07-31T03:27:12;20.00;59.10
56729;DHT22;42612;52.232;7.560;2023-07-31T03:29:37;20.10;59.40
56729;DHT22;42612;52.232;7.560;2023-07-31T03:32:03;20.20;58.60
56729;DHT22;42612;52.232;7.560;2023-07-31T03:34:29;20.00;58.80
56729;DHT22;42612;52.232;7.560;2023-07-31T03:36:57;20.00;60.90
56729;DHT22;42612;52.232;7.560;2023-07-31T03:39:23;20.00;59.10
56729;DHT22;42612;52.232;7.560;2023-07-31T03:41:49;20.00;59.10
56729;DHT22;42612;52.232;7.560;2023-07-31T03:44:14;20.00;59.10
56729;DHT22;42612;52.232;7.560;2023-07-31T03:46:40;20.00;62.00
56729;DHT22;42612;52.232;7.560;2023-07-31T03:49:05;19.90;61.70
56729;DHT22;42612;52.232;7.560;2023-07-31T03:51:31;20.00;59.60
56729;DHT22;42612;52.232;7.560;2023-07-31T03:53:56;20.00;59.10
56729;DHT22;42612;52.232;7.560;2023-07-31T03:56:22;20.00;59.40
56729;DHT22;42612;52.232;7.560;2023-07-31T03:58:48;20.00;59.20
56729;DHT22;42612;52.232;7.560;2023-07-31T04:01:13;20.00;59.50
56729;DHT22;42612;52.232;7.560;2023-07-31T04:03:39;20.10;59.60
56729;DHT22;42612;52.232;7.560;2023-07-31T04:06:04;20.00;59.10
56729;DHT22;42612;52.232;7.560;2023-07-31T04:08:32;20.10;59.40
56729;DHT22;42612;52.232;7.560;2023-07-31T04:10:57;20.10;59.20
56729;DHT22;42612;52.232;7.560;2023-07-31T04:13:23;20.00;59.20
56729;DHT22;42612;52.232;7.560;2023-07-31T04:15:49;20.00;59.10
56729;DHT22;42612;52.232;7.560;2023-07-31T04:18:16;20.00;60.40
56729;DHT22;42612;52.232;7.560;2023-07-31T04:20:41;19.90;59.20
56729;DHT22;42612;52.232;7.560;2023-07-31T04:23:07;19.90;59.30
56729;DHT22;42612;52.232;7.560;2023-07-31T04:25:33;19.90;59.40
56729;DHT22;42612;52.232;7.560;2023-07-31T04:28:00;19.90;59.80
56729;DHT22;42612;52.232;7.560;2023-07-31T04:30:26;19.90;60.00
56729;DHT22;42612;52.232;7.560;2023-07-31T04:32:51;19.90;59.60
56729;DHT22;42612;52.232;7.560;2023-07-31T04:35:17;19.80;60.70
56729;DHT22;42612;52.232;7.560;2023-07-31T04:37:42;19.90;60.30
56729;DHT22;42612;52.232;7.560;2023-07-31T04:40:09;19.90;59.70
56729;DHT22;42612;52.232;7.560;2023-07-31T04:42:35;19.90;60.00
56729;DHT22;42612;52.232;7.560;2023-07-31T04:45:01;19.90;61.00
56729;DHT22;42612;52.232;7.560;2023-07-31T04:47:26;19.90;60.20
56729;DHT22;42612;52.232;7.560;2023-07-31T04:49:52;19.90;60.50
56729;DHT22;42612;52.232;7.560;2023-07-31T04:52:18;19.80;59.90
56729;DHT22;42612;52.232;7.560;2023-07-31T04:54:43;19.80;60.20
56729;DHT22;42612;52.232;7.560;2023-07-31T04:57:09;19.90;60.70
56729;DHT22;42612;52.232;7.560;2023-07-31T04:59:34;19.90;60.90
56729;DHT22;42612;52.232;7.560;2023-07-31T05:02:00;19.90;60.20
56729;DHT22;42612;52.232;7.560;2023-07-31T05:04:26;19.90;60.00
56729;DHT22;42612;52.232;7.560;2023-07-31T05:06:51;19.90;60.00
56729;DHT22;42612;52.232;7.560;2023-07-31T05:09:17;19.80;60.20
56729;DHT22;42612;52.232;7.560;2023-07-31T05:11:43;19.80;60.40
56729;DHT22;42612;52.232;7.560;2023-07-31T05:14:09;19.90;60.10
56729;DHT22;42612;52.232;7.560;2023-07-31T05:16:34;19.80;60.20
56729;DHT22;42612;52.232;7.560;2023-07-31T05:19:00;19.80;63.10
56729;DHT22;42612;52.232;7.560;2023-07-31T05:21:25;19.90;60.40
56729;DHT22;42612;52.232;7.560;2023-07-31T05:23:52;19.80;60.40
56729;DHT22;42612;52.232;7.560;2023-07-31T05:26:18;19.80;60.60
56729;DHT22;42612;52.232;7.560;2023-07-31T05:28:44;19.90;60.70
56729;DHT22;42612;52.232;7.560;2023-07-31T05:31:09;19.90;60.90
56729;DHT22;42612;52.232;7.560;2023-07-31T05:33:35;19.80;60.50
56729;DHT22;42612;52.232;7.560;2023-07-31T05:36:00;19.80;60.40
56729;DHT22;42612;52.232;7.560;2023-07-31T05:38:26;19.90;60.70
56729;DHT22;42612;52.232;7.560;2023-07-31T05:40:52;19.90;60.40
56729;DHT22;42612;52.232;7.560;2023-07-31T05:43:17;19.80;60.30
56729;DHT22;42612;52.232;7.560;2023-07-31T05:45:43;19.90;63.40
56729;DHT22;42612;52.232;7.560;2023-07-31T05:48:08;19.80;62.40
56729;DHT22;42612;52.232;7.560;2023-07-31T05:50:34;19.80;62.40
56729;DHT22;42612;52.232;7.560;2023-07-31T05:53:00;19.80;62.70
56729;DHT22;42612;52.232;7.560;2023-07-31T05:55:25;19.80;62.70
56729;DHT22;42612;52.232;7.560;2023-07-31T05:57:54;19.80;62.60
56729;DHT22;42612;52.232;7.560;2023-07-31T06:00:20;19.90;61.70
56729;DHT22;42612;52.232;7.560;2023-07-31T06:02:46;19.80;61.20
56729;DHT22;42612;52.232;7.560;2023-07-31T06:05:12;19.90;60.70
56729;DHT22;42612;52.232;7.560;2023-07-31T06:07:38;19.80;61.50
56729;DHT22;42612;52.232;7.560;2023-07-31T06:10:04;19.80;61.00
56729;DHT22;42612;52.232;7.560;2023-07-31T06:12:31;19.80;63.70
56729;DHT22;42612;52.232;7.560;2023-07-31T06:14:57;19.70;62.50
56729;DHT22;42612;52.232;7.560;2023-07-31T06:17:23;19.80;62.80
56729;DHT22;42612;52.232;7.560;2023-07-31T06:19:49;19.80;61.20
56729;DHT22;42612;52.232;7.560;2023-07-31T06:22:14;19.80;62.50
56729;DHT22;42612;52.232;7.560;2023-07-31T06:24:40;19.80;63.60
56729;DHT22;42612;52.232;7.560;2023-07-31T06:27:06;19.80;62.40
56729;DHT22;42612;52.232;7.560;2023-07-31T06:29:31;19.80;62.60
56729;DHT22;42612;52.232;7.560;2023-07-31T06:31:57;19.80;62.30
56729;DHT22;42612;52.232;7.560;2023-07-31T06:34:23;19.80;63.30
56729;DHT22;42612;52.232;7.560;2023-07-31T06:36:49;19.90;62.60
56729;DHT22;42612;52.232;7.560;2023-07-31T06:39:14;19.80;62.70
56729;DHT22;42612;52.232;7.560;2023-07-31T06:41:40;19.90;63.60
56729;DHT22;42612;52.232;7.560;2023-07-31T06:44:05;19.90;64.20
56729;DHT22;42612;52.232;7.560;2023-07-31T06:46:31;20.00;63.10
56729;DHT22;42612;52.232;7.560;2023-07-31T06:48:56;19.90;63.10
56729;DHT22;42612;52.232;7.560;2023-07-31T06:51:22;20.00;62.50
56729;DHT22;42612;52.232;7.560;2023-07-31T06:53:48;20.00;62.30
56729;DHT22;42612;52.232;7.560;2023-07-31T06:56:13;20.10;62.40
56729;DHT22;42612;52.232;7.560;2023-07-31T06:58:39;20.00;62.20
56729;DHT22;42612;52.232;7.560;2023-07-31T07:01:04;20.20;61.80
56729;DHT22;42612;52.232;7.560;2023-07-31T07:03:30;20.10;61.80
56729;DHT22;42612;52.232;7.560;2023-07-31T07:05:56;20.10;63.00
56729;DHT22;42612;52.232;7.560;2023-07-31T07:08:21;20.10;61.80
56729;DHT22;42612;52.232;7.560;2023-07-31T07:10:47;20.10;62.50
56729;DHT22;42612;52.232;7.560;2023-07-31T07:13:13;20.20;63.00
56729;DHT22;42612;52.232;7.560;2023-07-31T07:15:38;20.20;61.70
56729;DHT22;42612;52.232;7.560;2023-07-31T07:18:04;20.20;63.60
56729;DHT22;42612;52.232;7.560;2023-07-31T07:20:30;20.20;63.30
56729;DHT22;42612;52.232;7.560;2023-07-31T07:22:55;20.00;63.20
56729;DHT22;42612;52.232;7.560;2023-07-31T07:25:21;20.20;62.70
56729;DHT22;42612;52.232;7.560;2023-07-31T07:27:47;20.10;63.20
56729;DHT22;42612;52.232;7.560;2023-07-31T07:30:12;20.10;63.70
56729;DHT22;42612;52.232;7.560;2023-07-31T07:32:39;20.20;63.40
56729;DHT22;42612;52.232;7.560;2023-07-31T07:35:05;20.20;63.90
56729;DHT22;42612;52.232;7.560;2023-07-31T07:37:31;20.20;65.10
56729;DHT22;42612;52.232;7.560;2023-07-31T07:39:57;20.20;65.50
56729;DHT22;42612;52.232;7.560;2023-07-31T07:42:23;20.20;65.20
56729;DHT22;42612;52.232;7.560;2023-07-31T07:44:48;20.20;64.50
56729;DHT22;42612;52.232;7.560;2023-07-31T07:47:14;20.20;64.00
56729;DHT22;42612;52.232;7.560;2023-07-31T07:49:40;20.20;65.50
56729;DHT22;42612;52.232;7.560;2023-07-31T07:52:05;20.20;65.80
56729;DHT22;42612;52.232;7.560;2023-07-31T07:54:31;20.20;64.10
56729;DHT22;42612;52.232;7.560;2023-07-31T07:56:57;20.20;65.00
56729;DHT22;42612;52.232;7.560;2023-07-31T07:59:23;20.20;64.80
56729;DHT22;42612;52.232;7.560;2023-07-31T08:01:48;20.20;63.80
56729;DHT22;42612;52.232;7.560;2023-07-31T08:04:14;20.20;64.30
56729;DHT22;42612;52.232;7.560;2023-07-31T08:06:40;20.20;65.40
56729;DHT22;42612;52.232;7.560;2023-07-31T08:09:05;20.30;64.70
56729;DHT22;42612;52.232;7.560;2023-07-31T08:11:32;20.20;65.00
56729;DHT22;42612;52.232;7.560;2023-07-31T08:13:57;20.20;65.80
56729;DHT22;42612;52.232;7.560;2023-07-31T08:16:23;20.30;64.80
56729;DHT22;42612;52.232;7.560;2023-07-31T08:18:49;20.30;65.40
56729;DHT22;42612;52.232;7.560;2023-07-31T08:21:14;20.30;65.50
56729;DHT22;42612;52.232;7.560;2023-07-31T08:23:40;20.30;65.40
56729;DHT22;42612;52.232;7.560;2023-07-31T08:26:06;20.30;64.70
56729;DHT22;42612;52.232;7.560;2023-07-31T08:28:32;20.30;66.10
56729;DHT22;42612;52.232;7.560;2023-07-31T08:30:57;20.30;66.70
56729;DHT22;42612;52.232;7.560;2023-07-31T08:33:23;20.30;65.60
56729;DHT22;42612;52.232;7.560;2023-07-31T08:35:49;20.30;66.50
56729;DHT22;42612;52.232;7.560;2023-07-31T08:38:14;20.40;65.90
56729;DHT22;42612;52.232;7.560;2023-07-31T08:40:40;20.30;66.40
56729;DHT22;42612;52.232;7.560;2023-07-31T08:43:06;20.40;66.80
56729;DHT22;42612;52.232;7.560;2023-07-31T08:45:32;20.50;65.70
56729;DHT22;42612;52.232;7.560;2023-07-31T08:47:58;20.40;65.30
56729;DHT22;42612;52.232;7.560;2023-07-31T08:50:24;20.50;66.60
56729;DHT22;42612;52.232;7.560;2023-07-31T08:52:50;20.50;65.40
56729;DHT22;42612;52.232;7.560;2023-07-31T08:55:16;20.40;66.70
56729;DHT22;42612;52.232;7.560;2023-07-31T08:57:42;20.50;66.50
56729;DHT22;42612;52.232;7.560;2023-07-31T09:00:09;20.50;66.10
56729;DHT22;42612;52.232;7.560;2023-07-31T09:02:45;20.60;64.00
56729;DHT22;42612;52.232;7.560;2023-07-31T09:05:13;20.60;67.40
56729;DHT22;42612;52.232;7.560;2023-07-31T09:07:39;20.60;66.70
56729;DHT22;42612;52.232;7.560;2023-07-31T09:10:06;20.60;66.60
56729;DHT22;42612;52.232;7.560;2023-07-31T09:12:32;20.50;66.20
56729;DHT22;42612;52.232;7.560;2023-07-31T09:14:58;20.60;66.70
56729;DHT22;42612;52.232;7.560;2023-07-31T09:17:33;20.60;66.20
56729;DHT22;42612;52.232;7.560;2023-07-31T09:20:20;20.60;67.20
56729;DHT22;42612;52.232;7.560;2023-07-31T09:22:47;20.60;65.90
56729;DHT22;42612;52.232;7.560;2023-07-31T09:25:17;20.70;67.10
56729;DHT22;42612;52.232;7.560;2023-07-31T09:30:20;20.70;67.40
56729;DHT22;42612;52.232;7.560;2023-07-31T09:32:46;20.70;66.10
56729;DHT22;42612;52.232;7.560;2023-07-31T09:35:30;20.70;67.00
56729;DHT22;42612;52.232;7.560;2023-07-31T09:37:57;20.70;67.30
56729;DHT22;42612;52.232;7.560;2023-07-31T09:40:24;20.70;67.20
56729;DHT22;42612;52.232;7.560;2023-07-31T09:42:51;20.70;67.50
56729;DHT22;42612;52.232;7.560;2023-07-31T09:45:17;20.70;67.40
56729;DHT22;42612;52.232;7.560;2023-07-31T09:47:47;20.70;68.00
56729;DHT22;42612;52.232;7.560;2023-07-31T09:50:13;20.70;66.10
56729;DHT22;42612;52.232;7.560;2023-07-31T09:52:40;20.70;65.80
56729;DHT22;42612;52.232;7.560;2023-07-31T09:55:06;20.70;66.40
56729;DHT22;42612;52.232;7.560;2023-07-31T09:57:31;20.70;67.10
56729;DHT22;42612;52.232;7.560;2023-07-31T09:59:58;20.70;65.20
56729;DHT22;42612;52.232;7.560;2023-07-31T10:02:24;20.70;65.90
56729;DHT22;42612;52.232;7.560;2023-07-31T10:04:51;20.70;67.00
56729;DHT22;42612;52.232;7.560;2023-07-31T10:07:17;20.70;66.90
56729;DHT22;42612;52.232;7.560;2023-07-31T10:09:43;20.70;67.60
56729;DHT22;42612;52.232;7.560;2023-07-31T10:12:10;20.70;68.20
56729;DHT22;42612;52.232;7.560;2023-07-31T10:14:37;20.70;66.00
56729;DHT22;42612;52.232;7.560;2023-07-31T10:17:04;20.80;67.40
56729;DHT22;42612;52.232;7.560;2023-07-31T10:19:30;20.70;65.50
56729;DHT22;42612;52.232;7.560;2023-07-31T10:21:56;20.70;65.90
56729;DHT22;42612;52.232;7.560;2023-07-31T10:24:24;20.70;67.50
56729;DHT22;42612;52.232;7.560;2023-07-31T10:26:50;20.70;67.90
56729;DHT22;42612;52.232;7.560;2023-07-31T10:29:17;20.70;67.80
56729;DHT22;42612;52.232;7.560;2023-07-31T10:31:43;20.80;66.20
56729;DHT22;42612;52.232;7.560;2023-07-31T10:34:09;20.80;69.30
56729;DHT22;42612;52.232;7.560;2023-07-31T10:36:35;20.80;66.70
56729;DHT22;42612;52.232;7.560;2023-07-31T10:39:02;20.80;67.80
56729;DHT22;42612;52.232;7.560;2023-07-31T10:41:29;20.80;67.60
56729;DHT22;42612;52.232;7.560;2023-07-31T10:44:04;20.80;68.70
56729;DHT22;42612;52.232;7.560;2023-07-31T10:46:32;20.80;65.80
56729;DHT22;42612;52.232;7.560;2023-07-31T10:49:01;20.80;65.00
56729;DHT22;42612;52.232;7.560;2023-07-31T10:51:34;20.80;67.90
56729;DHT22;42612;52.232;7.560;2023-07-31T10:54:10;20.80;65.80
56729;DHT22;42612;52.232;7.560;2023-07-31T10:56:37;20.80;65.90
56729;DHT22;42612;52.232;7.560;2023-07-31T10:59:03;20.80;64.90
56729;DHT22;42612;52.232;7.560;2023-07-31T11:04:27;20.80;67.70
56729;DHT22;42612;52.232;7.560;2023-07-31T11:07:00;20.80;65.20
56729;DHT22;42612;52.232;7.560;2023-07-31T11:09:29;20.70;66.70
56729;DHT22;42612;52.232;7.560;2023-07-31T11:11:55;20.80;64.60
56729;DHT22;42612;52.232;7.560;2023-07-31T11:14:21;20.80;65.60
56729;DHT22;42612;52.232;7.560;2023-07-31T11:16:49;20.80;65.60
56729;DHT22;42612;52.232;7.560;2023-07-31T11:19:20;20.80;66.10
56729;DHT22;42612;52.232;7.560;2023-07-31T11:21:47;20.80;67.30
56729;DHT22;42612;52.232;7.560;2023-07-31T11:24:13;20.90;66.90
56729;DHT22;42612;52.232;7.560;2023-07-31T11:26:38;20.90;66.80
56729;DHT22;42612;52.232;7.560;2023-07-31T11:29:10;20.90;67.50
56729;DHT22;42612;52.232;7.560;2023-07-31T11:31:41;20.90;66.50
56729;DHT22;42612;52.232;7.560;2023-07-31T11:34:10;21.00;67.40
56729;DHT22;42612;52.232;7.560;2023-07-31T11:36:35;21.00;68.40
56729;DHT22;42612;52.232;7.560;2023-07-31T11:39:07;21.00;66.70
56729;DHT22;42612;52.232;7.560;2023-07-31T11:41:34;21.00;67.00
56729;DHT22;42612;52.232;7.560;2023-07-31T11:44:00;21.00;66.80
56729;DHT22;42612;52.232;7.560;2023-07-31T11:46:26;21.00;66.20
56729;DHT22;42612;52.232;7.560;2023-07-31T11:48:51;21.00;66.80
56729;DHT22;42612;52.232;7.560;2023-07-31T11:51:17;21.00;66.00
56729;DHT22;42612;52.232;7.560;2023-07-31T11:53:45;21.00;66.20
56729;DHT22;42612;52.232;7.560;2023-07-31T11:56:16;21.00;67.00
56729;DHT22;42612;52.232;7.560;2023-07-31T11:58:43;21.10;65.50
56729;DHT22;42612;52.232;7.560;2023-07-31T12:01:31;21.00;65.60
56729;DHT22;42612;52.232;7.560;2023-07-31T12:03:56;21.10;67.80
56729;DHT22;42612;52.232;7.560;2023-07-31T12:06:32;21.10;67.10
56729;DHT22;42612;52.232;7.560;2023-07-31T12:09:04;21.10;67.60
56729;DHT22;42612;52.232;7.560;2023-07-31T12:11:30;21.10;65.70
56729;DHT22;42612;52.232;7.560;2023-07-31T12:13:56;21.10;65.60
56729;DHT22;42612;52.232;7.560;2023-07-31T12:16:25;21.00;65.10
56729;DHT22;42612;52.232;7.560;2023-07-31T12:18:51;21.10;65.30
56729;DHT22;42612;52.232;7.560;2023-07-31T12:21:17;21.10;65.40
56729;DHT22;42612;52.232;7.560;2023-07-31T12:23:44;21.10;66.20
56729;DHT22;42612;52.232;7.560;2023-07-31T12:26:11;21.10;67.30
56729;DHT22;42612;52.232;7.560;2023-07-31T12:28:41;21.20;67.10
56729;DHT22;42612;52.232;7.560;2023-07-31T12:31:13;21.20;66.00
56729;DHT22;42612;52.232;7.560;2023-07-31T12:33:40;21.20;66.60
56729;DHT22;42612;52.232;7.560;2023-07-31T12:36:10;21.20;65.50
56729;DHT22;42612;52.232;7.560;2023-07-31T12:38:40;21.30;65.70
56729;DHT22;42612;52.232;7.560;2023-07-31T12:41:06;21.30;65.10
56729;DHT22;42612;52.232;7.560;2023-07-31T12:43:33;21.30;65.40
56729;DHT22;42612;52.232;7.560;2023-07-31T12:45:59;21.40;67.50
56729;DHT22;42612;52.232;7.560;2023-07-31T12:48:25;21.40;66.30
56729;DHT22;42612;52.232;7.560;2023-07-31T12:50:51;21.40;65.80
56729;DHT22;42612;52.232;7.560;2023-07-31T12:53:16;21.50;65.60
56729;DHT22;42612;52.232;7.560;2023-07-31T12:55:42;21.50;66.00
56729;DHT22;42612;52.232;7.560;2023-07-31T12:58:08;21.50;66.30
56729;DHT22;42612;52.232;7.560;2023-07-31T13:00:33;21.60;66.50
56729;DHT22;42612;52.232;7.560;2023-07-31T13:02:59;21.60;65.70
56729;DHT22;42612;52.232;7.560;2023-07-31T13:05:26;21.60;65.60
56729;DHT22;42612;52.232;7.560;2023-07-31T13:07:52;21.70;66.50
56729;DHT22;42612;52.232;7.560;2023-07-31T13:10:18;21.70;65.90
56729;DHT22;42612;52.232;7.560;2023-07-31T13:12:43;21.70;66.80
56729;DHT22;42612;52.232;7.560;2023-07-31T13:15:09;21.70;66.70
56729;DHT22;42612;52.232;7.560;2023-07-31T13:17:35;21.70;65.50
56729;DHT22;42612;52.232;7.560;2023-07-31T13:20:01;21.70;65.70
56729;DHT22;42612;52.232;7.560;2023-07-31T13:22:27;21.70;66.30
56729;DHT22;42612;52.232;7.560;2023-07-31T13:24:53;21.70;65.20
56729;DHT22;42612;52.232;7.560;2023-07-31T13:27:18;21.70;65.50
56729;DHT22;42612;52.232;7.560;2023-07-31T13:29:47;21.80;65.00
56729;DHT22;42612;52.232;7.560;2023-07-31T13:32:19;21.70;64.60
56729;DHT22;42612;52.232;7.560;2023-07-31T13:34:45;21.80;65.80
56729;DHT22;42612;52.232;7.560;2023-07-31T13:37:11;21.70;66.70
56729;DHT22;42612;52.232;7.560;2023-07-31T13:39:37;21.70;65.70
56729;DHT22;42612;52.232;7.560;2023-07-31T13:42:03;21.70;67.50
56729;DHT22;42612;52.232;7.560;2023-07-31T13:44:29;21.70;66.40
56729;DHT22;42612;52.232;7.560;2023-07-31T13:46:54;21.70;66.20
56729;DHT22;42612;52.232;7.560;2023-07-31T13:49:20;21.70;66.30
56729;DHT22;42612;52.232;7.560;2023-07-31T13:51:45;21.70;67.40
56729;DHT22;42612;52.232;7.560;2023-07-31T13:54:11;21.70;66.10
56729;DHT22;42612;52.232;7.560;2023-07-31T13:56:37;21.80;66.70
56729;DHT22;42612;52.232;7.560;2023-07-31T13:59:03;21.80;65.80
56729;DHT22;42612;52.232;7.560;2023-07-31T14:01:29;21.90;65.40
56729;DHT22;42612;52.232;7.560;2023-07-31T14:03:54;21.90;65.80
56729;DHT22;42612;52.232;7.560;2023-07-31T14:06:20;21.90;66.60
56729;DHT22;42612;52.232;7.560;2023-07-31T14:08:46;21.90;66.20
56729;DHT22;42612;52.232;7.560;2023-07-31T14:11:11;21.90;64.80
56729;DHT22;42612;52.232;7.560;2023-07-31T14:13:37;22.00;64.80
56729;DHT22;42612;52.232;7.560;2023-07-31T14:16:02;22.00;64.70
56729;DHT22;42612;52.232;7.560;2023-07-31T14:18:28;22.00;65.20
56729;DHT22;42612;52.232;7.560;2023-07-31T14:20:54;22.00;65.50
56729;DHT22;42612;52.232;7.560;2023-07-31T14:23:20;22.10;64.80
56729;DHT22;42612;52.232;7.560;2023-07-31T14:25:45;22.10;64.70
56729;DHT22;42612;52.232;7.560;2023-07-31T14:28:11;22.10;65.10
56729;DHT22;42612;52.232;7.560;2023-07-31T14:30:37;22.10;64.60
56729;DHT22;42612;52.232;7.560;2023-07-31T14:33:03;22.10;65.00
56729;DHT22;42612;52.232;7.560;2023-07-31T14:35:28;22.20;64.80
56729;DHT22;42612;52.232;7.560;2023-07-31T14:38:01;22.20;65.30
56729;DHT22;42612;52.232;7.560;2023-07-31T14:40:27;22.20;64.90
56729;DHT22;42612;52.232;7.560;2023-07-31T14:42:53;22.20;65.20
56729;DHT22;42612;52.232;7.560;2023-07-31T14:45:18;22.20;64.50
56729;DHT22;42612;52.232;7.560;2023-07-31T14:47:44;22.30;64.90
56729;DHT22;42612;52.232;7.560;2023-07-31T14:50:09;22.30;64.40
56729;DHT22;42612;52.232;7.560;2023-07-31T14:52:35;22.30;64.10
56729;DHT22;42612;52.232;7.560;2023-07-31T14:55:01;22.40;64.40
56729;DHT22;42612;52.232;7.560;2023-07-31T14:57:26;22.40;64.30
56729;DHT22;42612;52.232;7.560;2023-07-31T14:59:52;22.40;64.20
56729;DHT22;42612;52.232;7.560;2023-07-31T15:02:18;22.40;64.10
56729;DHT22;42612;52.232;7.560;2023-07-31T15:04:43;22.40;64.20
56729;DHT22;42612;52.232;7.560;2023-07-31T15:07:09;22.40;64.00
56729;DHT22;42612;52.232;7.560;2023-07-31T15:09:35;22.40;64.40
56729;DHT22;42612;52.232;7.560;2023-07-31T15:12:00;22.40;64.00
56729;DHT22;42612;52.232;7.560;2023-07-31T15:14:26;22.40;63.90
56729;DHT22;42612;52.232;7.560;2023-07-31T15:16:56;22.40;64.00
56729;DHT22;42612;52.232;7.560;2023-07-31T15:19:22;22.40;63.70
56729;DHT22;42612;52.232;7.560;2023-07-31T15:21:48;22.40;64.30
56729;DHT22;42612;52.232;7.560;2023-07-31T15:24:14;22.40;63.80
56729;DHT22;42612;52.232;7.560;2023-07-31T15:26:40;22.40;64.50
56729;DHT22;42612;52.232;7.560;2023-07-31T15:29:07;22.30;64.50
56729;DHT22;42612;52.232;7.560;2023-07-31T15:31:55;22.30;64.50
56729;DHT22;42612;52.232;7.560;2023-07-31T15:34:21;22.30;64.20